sensor_id;sensor_type;location;lat;lon;timestamp;P1;durP1;ratioP1;P2;durP2;ratioP2
1134;SDS011;556;53.550;10.048;2022-10-31T00:00:15;11.93;;;8.20;;
1134;SDS011;556;53.550;10.048;2022-10-31T00:02:42;9.30;;;8.47;;
1134;SDS011;556;53.550;10.048;2022-10-31T00:05:09;12.03;;;7.93;;
1134;SDS011;556;53.550;10.048;2022-10-31T00:07:37;6.87;;;6.13;;
1134;SDS011;556;53.550;10.048;2022-10-31T00:10:04;9.47;;;7.10;;
1134;SDS011;556;53.550;10.048;2022-10-31T00:12:34;9.37;;;7.47;;
1134;SDS011;556;53.550;10.048;2022-10-31T00:15:01;8.47;;;7.00;;
1134;SDS011;556;53.550;10.048;2022-10-31T00:17:28;7.27;;;6.57;;
1134;SDS011;556;53.550;10.048;2022-10-31T00:19:55;7.90;;;7.17;;
1134;SDS011;556;53.550;10.048;2022-10-31T00:22:22;23.23;;;8.10;;
1134;SDS011;556;53.550;10.048;2022-10-31T00:24:49;10.73;;;9.03;;
1134;SDS011;556;53.550;10.048;2022-10-31T00:27:16;7.57;;;6.73;;
1134;SDS011;556;53.550;10.048;2022-10-31T00:29:44;11.17;;;7.30;;
1134;SDS011;556;53.550;10.048;2022-10-31T00:32:11;14.63;;;8.53;;
1134;SDS011;556;53.550;10.048;2022-10-31T00:34:39;10.57;;;7.67;;
1134;SDS011;556;53.550;10.048;2022-10-31T00:37:06;9.40;;;7.70;;
1134;SDS011;556;53.550;10.048;2022-10-31T00:39:34;7.37;;;6.70;;
1134;SDS011;556;53.550;10.048;2022-10-31T00:42:02;7.83;;;7.13;;
1134;SDS011;556;53.550;10.048;2022-10-31T00:44:29;9.10;;;8.00;;
1134;SDS011;556;53.550;10.048;2022-10-31T00:46:57;8.93;;;6.90;;
1134;SDS011;556;53.550;10.048;2022-10-31T00:49:24;9.47;;;7.47;;
1134;SDS011;556;53.550;10.048;2022-10-31T00:51:51;7.63;;;7.00;;
1134;SDS011;556;53.550;10.048;2022-10-31T00:54:18;13.73;;;9.30;;
1134;SDS011;556;53.550;10.048;2022-10-31T00:56:45;7.47;;;6.87;;
1134;SDS011;556;53.550;10.048;2022-10-31T00:59:13;12.90;;;9.37;;
1134;SDS011;556;53.550;10.048;2022-10-31T01:01:40;10.27;;;6.17;;
1134;SDS011;556;53.550;10.048;2022-10-31T01:04:09;6.53;;;5.90;;
1134;SDS011;556;53.550;10.048;2022-10-31T01:06:36;9.03;;;8.23;;
1134;SDS011;556;53.550;10.048;2022-10-31T01:09:03;10.57;;;9.20;;
1134;SDS011;556;53.550;10.048;2022-10-31T01:11:30;11.13;;;9.20;;
1134;SDS011;556;53.550;10.048;2022-10-31T01:13:57;19.17;;;9.57;;
1134;SDS011;556;53.550;10.048;2022-10-31T01:16:25;15.23;;;9.77;;
1134;SDS011;556;53.550;10.048;2022-10-31T01:18:55;14.70;;;12.37;;
1134;SDS011;556;53.550;10.048;2022-10-31T01:21:26;11.67;;;9.63;;
1134;SDS011;556;53.550;10.048;2022-10-31T01:23:57;16.40;;;10.17;;
1134;SDS011;556;53.550;10.048;2022-10-31T01:26:27;18.80;;;10.90;;
1134;SDS011;556;53.550;10.048;2022-10-31T01:28:56;14.40;;;12.23;;
1134;SDS011;556;53.550;10.048;2022-10-31T01:31:25;13.00;;;10.47;;
1134;SDS011;556;53.550;10.048;2022-10-31T01:33:53;21.10;;;11.10;;
1134;SDS011;556;53.550;10.048;2022-10-31T01:36:21;19.20;;;10.70;;
1134;SDS011;556;53.550;10.048;2022-10-31T01:38:51;15.67;;;9.93;;
1134;SDS011;556;53.550;10.048;2022-10-31T01:41:21;11.13;;;9.80;;
1134;SDS011;556;53.550;10.048;2022-10-31T01:43:50;16.50;;;11.83;;
1134;SDS011;556;53.550;10.048;2022-10-31T01:46:20;15.47;;;10.10;;
1134;SDS011;556;53.550;10.048;2022-10-31T01:48:49;19.37;;;9.77;;
1134;SDS011;556;53.550;10.048;2022-10-31T01:51:19;13.97;;;10.97;;
1134;SDS011;556;53.550;10.048;2022-10-31T01:53:49;25.50;;;11.47;;
1134;SDS011;556;53.550;10.048;2022-10-31T01:56:21;19.00;;;11.10;;
1134;SDS011;556;53.550;10.048;2022-10-31T01:58:49;14.33;;;8.77;;
1134;SDS011;556;53.550;10.048;2022-10-31T02:01:17;15.33;;;11.93;;
1134;SDS011;556;53.550;10.048;2022-10-31T02:03:45;17.00;;;13.90;;
1134;SDS011;556;53.550;10.048;2022-10-31T02:06:16;16.23;;;10.93;;
1134;SDS011;556;53.550;10.048;2022-10-31T02:08:52;13.70;;;11.30;;
1134;SDS011;556;53.550;10.048;2022-10-31T02:11:20;17.50;;;12.27;;
1134;SDS011;556;53.550;10.048;2022-10-31T02:13:47;12.70;;;10.83;;
1134;SDS011;556;53.550;10.048;2022-10-31T02:16:14;31.00;;;13.30;;
1134;SDS011;556;53.550;10.048;2022-10-31T02:18:43;12.60;;;9.53;;
1134;SDS011;556;53.550;10.048;2022-10-31T02:21:11;18.40;;;10.33;;
1134;SDS011;556;53.550;10.048;2022-10-31T02:24:09;21.83;;;12.50;;
1134;SDS011;556;53.550;10.048;2022-10-31T02:26:52;12.97;;;8.93;;
1134;SDS011;556;53.550;10.048;2022-10-31T02:29:45;20.93;;;11.60;;
1134;SDS011;556;53.550;10.048;2022-10-31T02:32:35;13.83;;;10.43;;
1134;SDS011;556;53.550;10.048;2022-10-31T02:35:17;12.83;;;9.20;;
1134;SDS011;556;53.550;10.048;2022-10-31T02:37:55;17.80;;;12.20;;
1134;SDS011;556;53.550;10.048;2022-10-31T02:40:30;14.83;;;11.20;;
1134;SDS011;556;53.550;10.048;2022-10-31T02:43:24;12.30;;;8.90;;
1134;SDS011;556;53.550;10.048;2022-10-31T02:45:57;20.33;;;11.17;;
1134;SDS011;556;53.550;10.048;2022-10-31T02:48:31;14.60;;;10.57;;
1134;SDS011;556;53.550;10.048;2022-10-31T02:51:02;14.40;;;10.77;;
1134;SDS011;556;53.550;10.048;2022-10-31T02:53:31;11.27;;;9.17;;
1134;SDS011;556;53.550;10.048;2022-10-31T02:56:00;20.07;;;12.53;;
1134;SDS011;556;53.550;10.048;2022-10-31T02:58:29;18.30;;;12.30;;
1134;SDS011;556;53.550;10.048;2022-10-31T03:01:06;21.73;;;11.10;;
1134;SDS011;556;53.550;10.048;2022-10-31T03:06:45;17.27;;;11.03;;
1134;SDS011;556;53.550;10.048;2022-10-31T03:09:20;19.77;;;10.47;;
1134;SDS011;556;53.550;10.048;2022-10-31T03:11:56;13.70;;;9.23;;
1134;SDS011;556;53.550;10.048;2022-10-31T03:14:31;20.00;;;11.37;;
1134;SDS011;556;53.550;10.048;2022-10-31T03:17:04;11.80;;;9.60;;
1134;SDS011;556;53.550;10.048;2022-10-31T03:19:37;27.13;;;10.57;;
1134;SDS011;556;53.550;10.048;2022-10-31T03:22:12;10.93;;;8.17;;
1134;SDS011;556;53.550;10.048;2022-10-31T03:24:43;21.70;;;11.07;;
1134;SDS011;556;53.550;10.048;2022-10-31T03:27:13;16.07;;;11.60;;
1134;SDS011;556;53.550;10.048;2022-10-31T03:29:44;30.47;;;11.70;;
1134;SDS011;556;53.550;10.048;2022-10-31T03:32:15;16.47;;;12.13;;
1134;SDS011;556;53.550;10.048;2022-10-31T03:34:47;21.57;;;13.77;;
1134;SDS011;556;53.550;10.048;2022-10-31T03:37:16;18.20;;;12.57;;
1134;SDS011;556;53.550;10.048;2022-10-31T03:39:46;14.63;;;11.37;;
1134;SDS011;556;53.550;10.048;2022-10-31T03:42:17;30.70;;;13.93;;
1134;SDS011;556;53.550;10.048;2022-10-31T03:44:53;25.33;;;12.07;;
1134;SDS011;556;53.550;10.048;2022-10-31T03:47:26;14.23;;;9.73;;
1134;SDS011;556;53.550;10.048;2022-10-31T03:49:55;9.03;;;7.53;;
1134;SDS011;556;53.550;10.048;2022-10-31T03:52:24;21.27;;;12.00;;
1134;SDS011;556;53.550;10.048;2022-10-31T03:54:56;20.30;;;14.27;;
1134;SDS011;556;53.550;10.048;2022-10-31T03:57:30;16.60;;;11.60;;
1134;SDS011;556;53.550;10.048;2022-10-31T04:00:05;14.60;;;10.87;;
1134;SDS011;556;53.550;10.048;2022-10-31T04:02:45;17.33;;;12.13;;
1134;SDS011;556;53.550;10.048;2022-10-31T04:05:17;22.10;;;12.00;;
1134;SDS011;556;53.550;10.048;2022-10-31T04:07:46;17.03;;;11.90;;
1134;SDS011;556;53.550;10.048;2022-10-31T04:10:17;17.23;;;11.00;;
1134;SDS011;556;53.550;10.048;2022-10-31T04:12:47;15.03;;;10.50;;
1134;SDS011;556;53.550;10.048;2022-10-31T04:15:25;13.70;;;10.70;;
1134;SDS011;556;53.550;10.048;2022-10-31T04:17:53;31.33;;;12.70;;
1134;SDS011;556;53.550;10.048;2022-10-31T04:20:36;18.17;;;9.83;;
1134;SDS011;556;53.550;10.048;2022-10-31T04:23:04;16.97;;;10.67;;
1134;SDS011;556;53.550;10.048;2022-10-31T04:25:40;17.67;;;11.83;;
1134;SDS011;556;53.550;10.048;2022-10-31T04:28:09;21.57;;;10.63;;
1134;SDS011;556;53.550;10.048;2022-10-31T04:30:36;26.23;;;12.20;;
1134;SDS011;556;53.550;10.048;2022-10-31T04:33:03;15.83;;;9.40;;
1134;SDS011;556;53.550;10.048;2022-10-31T04:35:30;23.13;;;9.67;;
1134;SDS011;556;53.550;10.048;2022-10-31T04:37:59;14.13;;;10.17;;
1134;SDS011;556;53.550;10.048;2022-10-31T04:40:26;13.97;;;8.70;;
1134;SDS011;556;53.550;10.048;2022-10-31T04:43:12;26.30;;;12.40;;
1134;SDS011;556;53.550;10.048;2022-10-31T04:45:41;17.87;;;11.13;;
1134;SDS011;556;53.550;10.048;2022-10-31T04:48:08;16.20;;;11.90;;
1134;SDS011;556;53.550;10.048;2022-10-31T04:50:38;20.13;;;10.60;;
1134;SDS011;556;53.550;10.048;2022-10-31T04:53:07;13.43;;;8.17;;
1134;SDS011;556;53.550;10.048;2022-10-31T04:55:45;23.27;;;10.13;;
1134;SDS011;556;53.550;10.048;2022-10-31T04:58:17;17.20;;;13.13;;
1134;SDS011;556;53.550;10.048;2022-10-31T05:00:44;18.07;;;9.50;;
1134;SDS011;556;53.550;10.048;2022-10-31T05:03:11;10.33;;;8.90;;
1134;SDS011;556;53.550;10.048;2022-10-31T05:05:38;18.23;;;10.30;;
1134;SDS011;556;53.550;10.048;2022-10-31T05:08:09;20.67;;;11.07;;
1134;SDS011;556;53.550;10.048;2022-10-31T05:10:36;20.60;;;12.70;;
1134;SDS011;556;53.550;10.048;2022-10-31T05:13:04;14.03;;;9.53;;
1134;SDS011;556;53.550;10.048;2022-10-31T05:16:06;22.47;;;12.93;;
1134;SDS011;556;53.550;10.048;2022-10-31T05:18:39;16.73;;;11.03;;
1134;SDS011;556;53.550;10.048;2022-10-31T05:21:25;17.40;;;12.33;;
1134;SDS011;556;53.550;10.048;2022-10-31T05:23:58;12.33;;;8.73;;
1134;SDS011;556;53.550;10.048;2022-10-31T05:26:26;17.43;;;10.07;;
1134;SDS011;556;53.550;10.048;2022-10-31T05:28:54;22.00;;;12.47;;
1134;SDS011;556;53.550;10.048;2022-10-31T05:31:22;19.60;;;12.13;;
1134;SDS011;556;53.550;10.048;2022-10-31T05:33:50;13.03;;;9.60;;
1134;SDS011;556;53.550;10.048;2022-10-31T05:36:36;29.20;;;11.10;;
1134;SDS011;556;53.550;10.048;2022-10-31T05:39:12;18.00;;;10.63;;
1134;SDS011;556;53.550;10.048;2022-10-31T05:41:42;17.17;;;11.33;;
1134;SDS011;556;53.550;10.048;2022-10-31T05:44:15;15.37;;;10.90;;
1134;SDS011;556;53.550;10.048;2022-10-31T05:46:55;14.17;;;8.53;;
1134;SDS011;556;53.550;10.048;2022-10-31T05:49:41;17.47;;;8.60;;
1134;SDS011;556;53.550;10.048;2022-10-31T05:52:27;15.30;;;12.60;;
1134;SDS011;556;53.550;10.048;2022-10-31T05:55:07;16.03;;;10.73;;
1134;SDS011;556;53.550;10.048;2022-10-31T05:57:35;12.67;;;9.90;;
1134;SDS011;556;53.550;10.048;2022-10-31T06:00:03;20.03;;;10.63;;
1134;SDS011;556;53.550;10.048;2022-10-31T06:02:33;13.63;;;7.03;;
1134;SDS011;556;53.550;10.048;2022-10-31T06:05:39;10.03;;;7.20;;
1134;SDS011;556;53.550;10.048;2022-10-31T06:08:06;9.23;;;5.97;;
1134;SDS011;556;53.550;10.048;2022-10-31T06:10:35;12.00;;;9.80;;
1134;SDS011;556;53.550;10.048;2022-10-31T06:13:02;34.67;;;12.87;;
1134;SDS011;556;53.550;10.048;2022-10-31T06:15:43;19.23;;;8.70;;
1134;SDS011;556;53.550;10.048;2022-10-31T06:18:11;15.70;;;10.60;;
1134;SDS011;556;53.550;10.048;2022-10-31T06:20:47;14.77;;;9.07;;
1134;SDS011;556;53.550;10.048;2022-10-31T06:23:15;22.53;;;11.03;;
1134;SDS011;556;53.550;10.048;2022-10-31T06:25:45;32.97;;;12.10;;
1134;SDS011;556;53.550;10.048;2022-10-31T06:28:15;19.17;;;11.20;;
1134;SDS011;556;53.550;10.048;2022-10-31T06:31:06;15.27;;;9.80;;
1134;SDS011;556;53.550;10.048;2022-10-31T06:33:33;24.33;;;11.73;;
1134;SDS011;556;53.550;10.048;2022-10-31T06:36:01;23.03;;;10.63;;
1134;SDS011;556;53.550;10.048;2022-10-31T06:38:28;20.90;;;11.47;;
1134;SDS011;556;53.550;10.048;2022-10-31T06:41:01;19.90;;;11.03;;
1134;SDS011;556;53.550;10.048;2022-10-31T06:43:38;28.40;;;12.30;;
1134;SDS011;556;53.550;10.048;2022-10-31T06:46:18;37.07;;;15.60;;
1134;SDS011;556;53.550;10.048;2022-10-31T06:49:03;28.07;;;12.97;;
1134;SDS011;556;53.550;10.048;2022-10-31T06:51:37;27.00;;;14.63;;
1134;SDS011;556;53.550;10.048;2022-10-31T06:54:04;25.47;;;12.80;;
1134;SDS011;556;53.550;10.048;2022-10-31T06:56:32;19.03;;;12.50;;
1134;SDS011;556;53.550;10.048;2022-10-31T06:59:01;26.53;;;13.13;;
1134;SDS011;556;53.550;10.048;2022-10-31T07:01:48;9.93;;;7.53;;
1134;SDS011;556;53.550;10.048;2022-10-31T07:04:16;20.73;;;12.03;;
1134;SDS011;556;53.550;10.048;2022-10-31T07:06:43;17.30;;;11.20;;
1134;SDS011;556;53.550;10.048;2022-10-31T07:09:12;21.97;;;11.83;;
1134;SDS011;556;53.550;10.048;2022-10-31T07:11:40;10.43;;;7.43;;
1134;SDS011;556;53.550;10.048;2022-10-31T07:14:07;18.10;;;10.37;;
1134;SDS011;556;53.550;10.048;2022-10-31T07:16:34;12.70;;;8.40;;
1134;SDS011;556;53.550;10.048;2022-10-31T07:19:03;36.00;;;12.17;;
1134;SDS011;556;53.550;10.048;2022-10-31T07:21:30;15.73;;;12.20;;
1134;SDS011;556;53.550;10.048;2022-10-31T07:23:57;18.67;;;10.43;;
1134;SDS011;556;53.550;10.048;2022-10-31T07:26:44;21.77;;;8.73;;
1134;SDS011;556;53.550;10.048;2022-10-31T07:29:13;17.50;;;10.83;;
1134;SDS011;556;53.550;10.048;2022-10-31T07:31:40;20.37;;;11.30;;
1134;SDS011;556;53.550;10.048;2022-10-31T07:34:14;14.07;;;8.67;;
1134;SDS011;556;53.550;10.048;2022-10-31T07:37:00;22.33;;;10.10;;
1134;SDS011;556;53.550;10.048;2022-10-31T07:39:27;22.47;;;12.00;;
1134;SDS011;556;53.550;10.048;2022-10-31T07:41:57;14.00;;;8.93;;
1134;SDS011;556;53.550;10.048;2022-10-31T07:44:24;17.53;;;8.17;;
1134;SDS011;556;53.550;10.048;2022-10-31T07:46:51;15.30;;;10.97;;
1134;SDS011;556;53.550;10.048;2022-10-31T07:49:37;13.83;;;8.70;;
1134;SDS011;556;53.550;10.048;2022-10-31T07:52:22;16.77;;;8.77;;
1134;SDS011;556;53.550;10.048;2022-10-31T07:55:19;10.33;;;7.50;;
1134;SDS011;556;53.550;10.048;2022-10-31T07:57:56;16.67;;;9.23;;
1134;SDS011;556;53.550;10.048;2022-10-31T08:00:24;14.80;;;9.17;;
1134;SDS011;556;53.550;10.048;2022-10-31T08:02:58;9.50;;;7.53;;
1134;SDS011;556;53.550;10.048;2022-10-31T08:05:58;11.27;;;9.40;;
1134;SDS011;556;53.550;10.048;2022-10-31T08:08:41;12.53;;;6.87;;
1134;SDS011;556;53.550;10.048;2022-10-31T08:11:08;8.97;;;6.73;;
1134;SDS011;556;53.550;10.048;2022-10-31T08:13:38;22.77;;;7.87;;
1134;SDS011;556;53.550;10.048;2022-10-31T08:16:06;21.27;;;12.23;;
1134;SDS011;556;53.550;10.048;2022-10-31T08:18:36;12.70;;;7.03;;
1134;SDS011;556;53.550;10.048;2022-10-31T08:21:05;10.47;;;7.17;;
1134;SDS011;556;53.550;10.048;2022-10-31T08:23:32;14.90;;;7.33;;
1134;SDS011;556;53.550;10.048;2022-10-31T08:25:59;9.50;;;6.43;;
1134;SDS011;556;53.550;10.048;2022-10-31T08:28:27;12.20;;;7.77;;
1134;SDS011;556;53.550;10.048;2022-10-31T08:30:56;12.60;;;7.80;;
1134;SDS011;556;53.550;10.048;2022-10-31T08:33:39;10.90;;;6.90;;
1134;SDS011;556;53.550;10.048;2022-10-31T08:36:18;17.47;;;10.47;;
1134;SDS011;556;53.550;10.048;2022-10-31T08:38:53;13.53;;;8.73;;
1134;SDS011;556;53.550;10.048;2022-10-31T08:41:21;9.73;;;6.60;;
1134;SDS011;556;53.550;10.048;2022-10-31T08:43:48;24.83;;;10.10;;
1134;SDS011;556;53.550;10.048;2022-10-31T08:46:17;14.30;;;9.03;;
1134;SDS011;556;53.550;10.048;2022-10-31T08:48:44;10.50;;;6.73;;
1134;SDS011;556;53.550;10.048;2022-10-31T08:51:13;12.37;;;8.03;;
1134;SDS011;556;53.550;10.048;2022-10-31T08:53:41;18.17;;;10.03;;
1134;SDS011;556;53.550;10.048;2022-10-31T08:56:34;13.87;;;7.40;;
1134;SDS011;556;53.550;10.048;2022-10-31T08:59:06;16.07;;;9.40;;
1134;SDS011;556;53.550;10.048;2022-10-31T09:01:47;19.53;;;10.13;;
1134;SDS011;556;53.550;10.048;2022-10-31T09:04:14;14.17;;;8.07;;
1134;SDS011;556;53.550;10.048;2022-10-31T09:06:42;18.00;;;10.43;;
1134;SDS011;556;53.550;10.048;2022-10-31T09:09:09;11.67;;;10.37;;
1134;SDS011;556;53.550;10.048;2022-10-31T09:11:42;11.67;;;9.43;;
1134;SDS011;556;53.550;10.048;2022-10-31T09:14:10;22.03;;;11.60;;
1134;SDS011;556;53.550;10.048;2022-10-31T09:17:12;16.27;;;9.50;;
1134;SDS011;556;53.550;10.048;2022-10-31T09:19:55;15.50;;;8.77;;
1134;SDS011;556;53.550;10.048;2022-10-31T09:22:28;17.47;;;10.10;;
1134;SDS011;556;53.550;10.048;2022-10-31T09:24:55;14.70;;;10.13;;
1134;SDS011;556;53.550;10.048;2022-10-31T09:27:22;16.07;;;9.03;;
1134;SDS011;556;53.550;10.048;2022-10-31T09:29:52;10.10;;;9.03;;
1134;SDS011;556;53.550;10.048;2022-10-31T09:32:20;11.30;;;9.07;;
1134;SDS011;556;53.550;10.048;2022-10-31T09:34:48;9.57;;;8.43;;
1134;SDS011;556;53.550;10.048;2022-10-31T09:37:19;12.00;;;9.63;;
1134;SDS011;556;53.550;10.048;2022-10-31T09:39:46;15.17;;;9.73;;
1134;SDS011;556;53.550;10.048;2022-10-31T09:42:24;13.57;;;8.10;;
1134;SDS011;556;53.550;10.048;2022-10-31T09:45:12;15.13;;;10.27;;
1134;SDS011;556;53.550;10.048;2022-10-31T09:47:50;19.17;;;9.47;;
1134;SDS011;556;53.550;10.048;2022-10-31T09:50:35;21.10;;;9.73;;
1134;SDS011;556;53.550;10.048;2022-10-31T09:53:27;22.40;;;11.87;;
1134;SDS011;556;53.550;10.048;2022-10-31T09:56:01;19.43;;;8.60;;
1134;SDS011;556;53.550;10.048;2022-10-31T09:58:32;13.23;;;10.33;;
1134;SDS011;556;53.550;10.048;2022-10-31T10:01:04;17.50;;;10.13;;
1134;SDS011;556;53.550;10.048;2022-10-31T10:03:35;15.37;;;8.50;;
1134;SDS011;556;53.550;10.048;2022-10-31T10:06:27;14.77;;;10.33;;
1134;SDS011;556;53.550;10.048;2022-10-31T10:09:27;17.40;;;10.70;;
1134;SDS011;556;53.550;10.048;2022-10-31T10:12:35;19.50;;;8.73;;
1134;SDS011;556;53.550;10.048;2022-10-31T10:15:18;14.70;;;7.33;;
1134;SDS011;556;53.550;10.048;2022-10-31T10:18:05;16.50;;;9.80;;
1134;SDS011;556;53.550;10.048;2022-10-31T10:20:43;17.23;;;10.73;;
1134;SDS011;556;53.550;10.048;2022-10-31T10:23:29;24.77;;;10.53;;
1134;SDS011;556;53.550;10.048;2022-10-31T10:26:05;13.37;;;9.20;;
1134;SDS011;556;53.550;10.048;2022-10-31T10:28:41;11.77;;;8.23;;
1134;SDS011;556;53.550;10.048;2022-10-31T10:31:13;15.67;;;8.53;;
1134;SDS011;556;53.550;10.048;2022-10-31T10:33:43;15.03;;;8.23;;
1134;SDS011;556;53.550;10.048;2022-10-31T10:36:16;14.30;;;10.53;;
1134;SDS011;556;53.550;10.048;2022-10-31T10:38:52;16.37;;;10.00;;
1134;SDS011;556;53.550;10.048;2022-10-31T10:41:23;17.27;;;9.50;;
1134;SDS011;556;53.550;10.048;2022-10-31T10:43:54;13.13;;;7.73;;
1134;SDS011;556;53.550;10.048;2022-10-31T10:46:21;14.93;;;9.50;;
1134;SDS011;556;53.550;10.048;2022-10-31T10:49:15;13.77;;;10.30;;
1134;SDS011;556;53.550;10.048;2022-10-31T10:51:46;14.30;;;8.53;;
1134;SDS011;556;53.550;10.048;2022-10-31T10:57:16;17.70;;;10.57;;
1134;SDS011;556;53.550;10.048;2022-10-31T10:59:48;19.90;;;9.50;;
1134;SDS011;556;53.550;10.048;2022-10-31T11:02:17;16.63;;;10.73;;
1134;SDS011;556;53.550;10.048;2022-10-31T11:04:49;11.63;;;7.33;;
1134;SDS011;556;53.550;10.048;2022-10-31T11:07:20;15.53;;;10.10;;
1134;SDS011;556;53.550;10.048;2022-10-31T11:09:47;12.90;;;9.37;;
1134;SDS011;556;53.550;10.048;2022-10-31T11:12:19;16.00;;;10.07;;
1134;SDS011;556;53.550;10.048;2022-10-31T11:14:50;12.73;;;10.50;;
1134;SDS011;556;53.550;10.048;2022-10-31T11:17:25;15.10;;;8.40;;
1134;SDS011;556;53.550;10.048;2022-10-31T11:20:01;10.23;;;8.63;;
1134;SDS011;556;53.550;10.048;2022-10-31T11:22:31;8.67;;;7.17;;
1134;SDS011;556;53.550;10.048;2022-10-31T11:24:58;10.17;;;7.30;;
1134;SDS011;556;53.550;10.048;2022-10-31T11:27:25;10.13;;;7.07;;
1134;SDS011;556;53.550;10.048;2022-10-31T11:29:52;14.70;;;9.00;;
1134;SDS011;556;53.550;10.048;2022-10-31T11:32:31;16.27;;;9.30;;
1134;SDS011;556;53.550;10.048;2022-10-31T11:34:59;16.63;;;8.50;;
1134;SDS011;556;53.550;10.048;2022-10-31T11:37:31;12.83;;;8.07;;
1134;SDS011;556;53.550;10.048;2022-10-31T11:40:02;10.77;;;8.33;;
1134;SDS011;556;53.550;10.048;2022-10-31T11:42:34;15.70;;;8.80;;
1134;SDS011;556;53.550;10.048;2022-10-31T11:45:05;12.93;;;8.20;;
1134;SDS011;556;53.550;10.048;2022-10-31T11:47:41;11.50;;;7.80;;
1134;SDS011;556;53.550;10.048;2022-10-31T11:50:11;13.10;;;11.00;;
1134;SDS011;556;53.550;10.048;2022-10-31T11:52:47;16.43;;;9.47;;
1134;SDS011;556;53.550;10.048;2022-10-31T11:55:16;13.33;;;8.97;;
1134;SDS011;556;53.550;10.048;2022-10-31T11:57:56;15.07;;;10.40;;
1134;SDS011;556;53.550;10.048;2022-10-31T12:00:24;16.17;;;9.50;;
1134;SDS011;556;53.550;10.048;2022-10-31T12:03:03;14.80;;;9.47;;
1134;SDS011;556;53.550;10.048;2022-10-31T12:05:36;10.30;;;6.90;;
1134;SDS011;556;53.550;10.048;2022-10-31T12:08:08;12.20;;;8.40;;
1134;SDS011;556;53.550;10.048;2022-10-31T12:10:39;10.60;;;8.87;;
1134;SDS011;556;53.550;10.048;2022-10-31T12:13:17;16.73;;;9.90;;
1134;SDS011;556;53.550;10.048;2022-10-31T12:15:59;16.07;;;10.47;;
1134;SDS011;556;53.550;10.048;2022-10-31T12:18:35;18.30;;;10.67;;
1134;SDS011;556;53.550;10.048;2022-10-31T12:21:29;12.60;;;9.43;;
1134;SDS011;556;53.550;10.048;2022-10-31T12:24:16;16.93;;;10.40;;
1134;SDS011;556;53.550;10.048;2022-10-31T12:26:54;16.53;;;8.77;;
1134;SDS011;556;53.550;10.048;2022-10-31T12:29:37;15.77;;;8.33;;
1134;SDS011;556;53.550;10.048;2022-10-31T12:32:20;11.37;;;8.93;;
1134;SDS011;556;53.550;10.048;2022-10-31T12:38:00;19.20;;;9.17;;
1134;SDS011;556;53.550;10.048;2022-10-31T12:40:42;18.13;;;8.93;;
1134;SDS011;556;53.550;10.048;2022-10-31T12:43:27;15.93;;;10.13;;
1134;SDS011;556;53.550;10.048;2022-10-31T12:46:02;18.20;;;6.80;;
1134;SDS011;556;53.550;10.048;2022-10-31T12:48:38;15.43;;;7.53;;
1134;SDS011;556;53.550;10.048;2022-10-31T12:51:26;11.53;;;7.53;;
1134;SDS011;556;53.550;10.048;2022-10-31T12:54:14;10.53;;;6.83;;
1134;SDS011;556;53.550;10.048;2022-10-31T12:56:55;11.83;;;7.70;;
1134;SDS011;556;53.550;10.048;2022-10-31T12:59:29;8.80;;;5.57;;
1134;SDS011;556;53.550;10.048;2022-10-31T13:02:02;5.90;;;5.23;;
1134;SDS011;556;53.550;10.048;2022-10-31T13:04:39;12.80;;;8.23;;
1134;SDS011;556;53.550;10.048;2022-10-31T13:07:10;6.20;;;5.60;;
1134;SDS011;556;53.550;10.048;2022-10-31T13:09:42;7.97;;;4.83;;
1134;SDS011;556;53.550;10.048;2022-10-31T13:12:16;6.50;;;5.40;;
1134;SDS011;556;53.550;10.048;2022-10-31T13:14:47;10.10;;;7.73;;
1134;SDS011;556;53.550;10.048;2022-10-31T13:17:20;9.73;;;5.47;;
1134;SDS011;556;53.550;10.048;2022-10-31T13:19:51;8.33;;;5.90;;
1134;SDS011;556;53.550;10.048;2022-10-31T13:22:26;13.50;;;6.27;;
1134;SDS011;556;53.550;10.048;2022-10-31T13:24:58;7.30;;;5.27;;
1134;SDS011;556;53.550;10.048;2022-10-31T13:27:33;9.10;;;4.90;;
1134;SDS011;556;53.550;10.048;2022-10-31T13:30:12;7.57;;;5.77;;
1134;SDS011;556;53.550;10.048;2022-10-31T13:32:44;5.17;;;4.63;;
1134;SDS011;556;53.550;10.048;2022-10-31T13:35:16;5.80;;;3.80;;
1134;SDS011;556;53.550;10.048;2022-10-31T13:37:50;7.40;;;4.60;;
1134;SDS011;556;53.550;10.048;2022-10-31T13:40:27;8.33;;;6.23;;
1134;SDS011;556;53.550;10.048;2022-10-31T13:43:05;7.20;;;6.17;;
1134;SDS011;556;53.550;10.048;2022-10-31T13:45:47;12.73;;;6.27;;
1134;SDS011;556;53.550;10.048;2022-10-31T13:48:20;5.90;;;5.13;;
1134;SDS011;556;53.550;10.048;2022-10-31T13:51:03;6.47;;;4.33;;
1134;SDS011;556;53.550;10.048;2022-10-31T13:56:25;7.20;;;4.70;;
1134;SDS011;556;53.550;10.048;2022-10-31T13:58:58;6.03;;;4.90;;
1134;SDS011;556;53.550;10.048;2022-10-31T14:01:26;6.67;;;4.57;;
1134;SDS011;556;53.550;10.048;2022-10-31T14:03:59;11.03;;;5.40;;
1134;SDS011;556;53.550;10.048;2022-10-31T14:06:35;7.37;;;5.50;;
1134;SDS011;556;53.550;10.048;2022-10-31T14:09:14;7.63;;;4.97;;
1134;SDS011;556;53.550;10.048;2022-10-31T14:11:57;10.53;;;4.83;;
1134;SDS011;556;53.550;10.048;2022-10-31T14:17:22;10.23;;;5.87;;
1134;SDS011;556;53.550;10.048;2022-10-31T14:19:59;9.13;;;6.53;;
1134;SDS011;556;53.550;10.048;2022-10-31T14:22:29;6.30;;;4.80;;
1134;SDS011;556;53.550;10.048;2022-10-31T14:24:57;7.20;;;5.93;;
1134;SDS011;556;53.550;10.048;2022-10-31T14:27:34;6.90;;;4.87;;
1134;SDS011;556;53.550;10.048;2022-10-31T14:30:17;5.40;;;4.90;;
1134;SDS011;556;53.550;10.048;2022-10-31T14:32:49;8.23;;;4.83;;
1134;SDS011;556;53.550;10.048;2022-10-31T14:35:18;18.60;;;5.90;;
1134;SDS011;556;53.550;10.048;2022-10-31T14:37:56;7.87;;;5.30;;
1134;SDS011;556;53.550;10.048;2022-10-31T14:40:46;9.17;;;5.80;;
1134;SDS011;556;53.550;10.048;2022-10-31T14:43:31;7.63;;;5.30;;
1134;SDS011;556;53.550;10.048;2022-10-31T14:46:13;9.13;;;6.43;;
1134;SDS011;556;53.550;10.048;2022-10-31T14:48:58;10.50;;;6.70;;
1134;SDS011;556;53.550;10.048;2022-10-31T14:51:36;6.23;;;5.60;;
1134;SDS011;556;53.550;10.048;2022-10-31T14:54:07;6.03;;;4.93;;
1134;SDS011;556;53.550;10.048;2022-10-31T14:56:42;14.17;;;5.13;;
1134;SDS011;556;53.550;10.048;2022-10-31T14:59:15;5.47;;;4.97;;
1134;SDS011;556;53.550;10.048;2022-10-31T15:01:51;7.30;;;5.77;;
1134;SDS011;556;53.550;10.048;2022-10-31T15:04:23;7.70;;;6.90;;
1134;SDS011;556;53.550;10.048;2022-10-31T15:06:53;8.63;;;7.57;;
1134;SDS011;556;53.550;10.048;2022-10-31T15:09:25;8.73;;;7.87;;
1134;SDS011;556;53.550;10.048;2022-10-31T15:11:53;9.17;;;5.10;;
1134;SDS011;556;53.550;10.048;2022-10-31T15:14:22;8.20;;;5.27;;
1134;SDS011;556;53.550;10.048;2022-10-31T15:16:52;12.70;;;6.90;;
1134;SDS011;556;53.550;10.048;2022-10-31T15:19:21;11.50;;;7.27;;
1134;SDS011;556;53.550;10.048;2022-10-31T15:21:50;9.37;;;6.50;;
1134;SDS011;556;53.550;10.048;2022-10-31T15:24:19;7.50;;;6.10;;
1134;SDS011;556;53.550;10.048;2022-10-31T15:26:48;8.30;;;5.77;;
1134;SDS011;556;53.550;10.048;2022-10-31T15:29:17;6.73;;;4.93;;
1134;SDS011;556;53.550;10.048;2022-10-31T15:31:51;10.00;;;5.40;;
1134;SDS011;556;53.550;10.048;2022-10-31T15:34:20;19.53;;;7.67;;
1134;SDS011;556;53.550;10.048;2022-10-31T15:36:52;6.17;;;5.50;;
1134;SDS011;556;53.550;10.048;2022-10-31T15:39:20;7.83;;;6.33;;
1134;SDS011;556;53.550;10.048;2022-10-31T15:41:48;7.90;;;7.13;;
1134;SDS011;556;53.550;10.048;2022-10-31T15:44:18;17.13;;;6.77;;
1134;SDS011;556;53.550;10.048;2022-10-31T15:46:52;14.20;;;8.70;;
1134;SDS011;556;53.550;10.048;2022-10-31T15:49:26;13.67;;;8.47;;